createdAt,value
2019-06-15T00:01:17.965Z,16.47
2019-06-15T00:03:48.408Z,14.80
2019-06-15T00:06:18.684Z,15.60
2019-06-15T00:08:48.864Z,17.20
2019-06-15T00:11:19.044Z,17.63
2019-06-15T00:13:49.223Z,15.30
2019-06-15T00:16:19.385Z,15.00
2019-06-15T00:18:49.587Z,18.73
2019-06-15T00:21:19.752Z,15.87
2019-06-15T00:23:49.940Z,18.50
2019-06-15T00:26:20.116Z,20.90
2019-06-15T00:28:50.284Z,20.37
2019-06-15T00:31:20.455Z,16.63
2019-06-15T00:33:50.619Z,24.80
2019-06-15T00:36:20.779Z,18.37
2019-06-15T00:38:50.970Z,19.70
2019-06-15T00:41:21.166Z,20.47
2019-06-15T00:43:51.435Z,24.17
2019-06-15T00:46:21.670Z,21.30
2019-06-15T00:48:51.915Z,24.53
2019-06-15T00:51:22.080Z,22.47
2019-06-15T00:53:52.273Z,25.47
2019-06-15T00:56:22.438Z,23.50
2019-06-15T00:58:52.623Z,28.07
2019-06-15T01:01:22.834Z,31.47
2019-06-15T01:03:54.605Z,29.60
2019-06-15T01:06:24.783Z,30.53
2019-06-15T01:08:54.958Z,27.97
2019-06-15T01:11:25.527Z,28.47
2019-06-15T01:13:55.708Z,29.07
2019-06-15T01:16:37.717Z,27.53
2019-06-15T01:19:07.952Z,25.60
2019-06-15T01:21:38.127Z,29.73
2019-06-15T01:24:09.389Z,37.73
2019-06-15T01:26:39.555Z,30.63
2019-06-15T01:29:09.736Z,30.87
2019-06-15T01:31:39.919Z,28.70
2019-06-15T01:34:10.096Z,32.03
2019-06-15T01:36:40.268Z,33.90
2019-06-15T01:39:10.425Z,32.23
2019-06-15T01:41:40.603Z,30.80
2019-06-15T01:44:10.775Z,32.20
2019-06-15T01:46:40.952Z,30.90
2019-06-15T01:49:11.169Z,36.40
2019-06-15T01:51:41.343Z,42.13
2019-06-15T01:54:11.512Z,35.43
2019-06-15T01:56:41.706Z,37.70
2019-06-15T01:59:11.920Z,38.50
2019-06-15T02:01:42.067Z,36.97
2019-06-15T02:04:12.317Z,39.20
2019-06-15T02:06:42.481Z,43.77
2019-06-15T02:09:12.747Z,41.73
2019-06-15T02:11:42.896Z,42.73
2019-06-15T02:14:13.064Z,39.97
2019-06-15T02:16:43.243Z,46.17
2019-06-15T02:19:13.407Z,43.97
2019-06-15T02:21:43.547Z,43.80
2019-06-15T02:24:13.720Z,44.93
2019-06-15T02:26:43.889Z,47.50
2019-06-15T02:29:14.049Z,44.00
2019-06-15T02:31:44.211Z,40.37
2019-06-15T02:34:14.392Z,40.17
2019-06-15T02:36:44.571Z,37.17
2019-06-15T02:39:14.711Z,45.63
2019-06-15T02:41:44.917Z,37.27
2019-06-15T02:44:15.444Z,41.30
2019-06-15T02:46:45.748Z,39.00
2019-06-15T02:49:16.084Z,38.10
2019-06-15T02:51:46.292Z,36.57
2019-06-15T02:54:17.556Z,34.23
2019-06-15T02:56:47.728Z,40.50
2019-06-15T02:59:17.891Z,40.60
2019-06-15T03:01:48.078Z,42.23
2019-06-15T03:04:18.248Z,37.47
2019-06-15T03:06:48.815Z,36.27
2019-06-15T03:09:19.003Z,36.17
2019-06-15T03:11:49.368Z,43.90
2019-06-15T03:14:19.577Z,41.13
2019-06-15T03:16:49.780Z,39.87
2019-06-15T03:19:19.931Z,39.67
2019-06-15T03:21:50.187Z,45.00
2019-06-15T03:24:20.410Z,42.93
2019-06-15T03:26:50.599Z,39.23
2019-06-15T03:29:20.746Z,42.67
2019-06-15T03:31:50.993Z,42.23
2019-06-15T03:34:21.174Z,41.97
2019-06-15T03:36:51.424Z,40.53
2019-06-15T03:39:21.597Z,37.63
2019-06-15T03:41:51.764Z,35.60
2019-06-15T03:44:21.957Z,38.43
2019-06-15T03:46:52.152Z,37.80
2019-06-15T03:49:22.328Z,37.93
2019-06-15T03:51:52.525Z,45.57
2019-06-15T03:54:22.679Z,40.67
2019-06-15T03:56:52.856Z,39.40
2019-06-15T03:59:23.031Z,47.30
2019-06-15T04:01:53.491Z,45.70
2019-06-15T04:04:23.765Z,43.90
2019-06-15T04:06:54.026Z,39.93
2019-06-15T04:09:24.228Z,43.23
2019-06-15T04:11:54.415Z,39.80
2019-06-15T04:14:24.584Z,36.30
2019-06-15T04:16:54.765Z,36.53
2019-06-15T04:19:24.940Z,38.43
2019-06-15T04:21:55.088Z,39.07
2019-06-15T04:24:25.272Z,36.13
2019-06-15T04:26:55.417Z,42.60
2019-06-15T04:29:25.663Z,40.63
2019-06-15T04:31:55.813Z,42.60
2019-06-15T04:34:26.123Z,38.57
2019-06-15T04:36:56.471Z,41.37
2019-06-15T04:39:26.659Z,42.83
2019-06-15T04:41:56.970Z,45.33
2019-06-15T04:44:27.249Z,50.00
2019-06-15T04:46:57.551Z,50.67
2019-06-15T04:49:27.768Z,51.37
2019-06-15T04:51:57.959Z,55.60
2019-06-15T04:54:28.113Z,48.80
2019-06-15T04:56:58.284Z,55.47
2019-06-15T04:59:28.486Z,56.37
2019-06-15T05:01:58.608Z,63.27
2019-06-15T05:04:28.851Z,52.57
2019-06-15T05:06:59.019Z,63.20
2019-06-15T05:09:29.183Z,60.03
2019-06-15T05:11:59.367Z,60.33
2019-06-15T05:14:30.569Z,58.13
2019-06-15T05:17:00.772Z,56.30
2019-06-15T05:19:30.927Z,62.90
2019-06-15T05:22:01.107Z,59.70
2019-06-15T05:24:31.257Z,57.00
2019-06-15T05:27:06.389Z,60.70
2019-06-15T05:29:33.304Z,60.37
2019-06-15T05:32:03.708Z,59.40
2019-06-15T05:34:34.008Z,59.67
2019-06-15T05:37:04.269Z,58.60
2019-06-15T05:39:34.747Z,55.40
2019-06-15T05:42:05.108Z,52.73
2019-06-15T05:44:35.281Z,48.90
2019-06-15T05:47:05.600Z,49.57
2019-06-15T05:49:35.823Z,50.27
2019-06-15T05:52:06.032Z,47.53
2019-06-15T05:54:36.216Z,49.47
2019-06-15T05:57:20.599Z,51.93
2019-06-15T05:59:41.418Z,48.53
2019-06-15T06:02:11.652Z,47.37
2019-06-15T06:04:41.808Z,46.27
2019-06-15T06:07:11.977Z,42.03
2019-06-15T06:09:42.275Z,40.50
2019-06-15T06:12:12.428Z,44.53
2019-06-15T06:14:42.603Z,44.43
2019-06-15T06:17:12.769Z,47.00
2019-06-15T06:19:42.939Z,46.83
2019-06-15T06:22:13.168Z,41.17
2019-06-15T06:24:43.422Z,42.97
2019-06-15T06:27:13.824Z,38.07
2019-06-15T06:29:44.123Z,39.83
2019-06-15T06:32:14.352Z,36.47
2019-06-15T06:34:45.734Z,32.40
2019-06-15T06:37:15.931Z,32.60
2019-06-15T06:39:46.140Z,33.97
2019-06-15T06:42:16.330Z,35.20
2019-06-15T06:44:46.551Z,33.27
2019-06-15T06:47:16.714Z,29.77
2019-06-15T06:49:46.974Z,30.77
2019-06-15T06:52:17.248Z,28.00
2019-06-15T06:54:50.311Z,26.73
2019-06-15T06:57:21.964Z,27.50
2019-06-15T06:59:52.124Z,27.40
2019-06-15T07:02:22.311Z,27.80
2019-06-15T07:04:52.471Z,27.53
2019-06-15T07:07:22.827Z,28.60
2019-06-15T07:09:54.513Z,29.07
2019-06-15T07:12:24.800Z,30.13
2019-06-15T07:14:54.975Z,29.20
2019-06-15T07:17:25.165Z,30.63
2019-06-15T07:19:55.363Z,26.90
2019-06-15T07:22:25.610Z,25.60
2019-06-15T07:24:55.821Z,27.90
2019-06-15T07:27:26.078Z,30.50
2019-06-15T07:29:56.235Z,31.10
2019-06-15T07:32:26.752Z,32.47
2019-06-15T07:34:57.457Z,32.27
2019-06-15T07:37:28.163Z,30.83
2019-06-15T07:39:58.344Z,31.53
2019-06-15T07:42:28.611Z,30.40
2019-06-15T07:44:58.780Z,28.70
2019-06-15T07:47:28.983Z,30.90
2019-06-15T07:50:01.572Z,32.33
2019-06-15T07:52:31.817Z,31.83
2019-06-15T07:55:01.990Z,32.53
2019-06-15T07:57:32.164Z,28.93
2019-06-15T08:00:02.393Z,28.07
2019-06-15T08:02:32.737Z,30.00
2019-06-15T08:05:02.932Z,23.03
2019-06-15T08:07:33.106Z,24.00
2019-06-15T08:10:03.508Z,18.53
2019-06-15T08:12:33.881Z,19.90
2019-06-15T08:15:04.795Z,13.97
2019-06-15T08:17:35.067Z,10.93
2019-06-15T08:20:13.346Z,12.00
2019-06-15T08:22:43.550Z,8.87
2019-06-15T08:25:14.720Z,11.90
2019-06-15T08:27:46.933Z,10.10
2019-06-15T08:30:19.373Z,8.93
2019-06-15T08:32:49.547Z,8.57
2019-06-15T08:35:20.355Z,9.67
2019-06-15T08:37:50.667Z,10.83
2019-06-15T08:40:21.187Z,10.57
2019-06-15T08:42:51.343Z,11.47
2019-06-15T08:45:21.621Z,16.70
2019-06-15T08:47:51.816Z,19.67
2019-06-15T08:50:23.880Z,25.60
2019-06-15T08:52:54.305Z,29.63
2019-06-15T08:55:24.668Z,31.90
2019-06-15T08:57:54.840Z,31.80
2019-06-15T09:00:25.243Z,34.20
2019-06-15T09:02:55.458Z,37.33
2019-06-15T09:05:26.864Z,34.37
2019-06-15T09:07:57.020Z,33.20
2019-06-15T09:10:27.227Z,34.20
2019-06-15T09:12:57.411Z,31.77
2019-06-15T09:15:37.884Z,27.97
2019-06-15T09:18:08.123Z,22.47
2019-06-15T09:20:38.460Z,20.10
2019-06-15T09:23:08.617Z,20.20
2019-06-15T09:25:38.857Z,16.90
2019-06-15T09:28:09.084Z,15.17
2019-06-15T09:30:39.298Z,14.60
2019-06-15T09:33:09.743Z,14.40
2019-06-15T09:35:39.941Z,12.60
2019-06-15T09:38:10.121Z,11.20
2019-06-15T09:40:40.344Z,10.50
2019-06-15T09:43:10.547Z,11.60
2019-06-15T09:45:40.783Z,9.60
2019-06-15T09:48:11.057Z,8.53
2019-06-15T09:50:41.548Z,7.27
2019-06-15T09:53:11.823Z,7.20
2019-06-15T09:55:41.988Z,5.50
2019-06-15T09:58:12.169Z,5.40
2019-06-15T10:00:42.354Z,7.13
2019-06-15T10:03:12.510Z,6.90
2019-06-15T10:05:42.975Z,3.67
2019-06-15T10:08:13.153Z,3.30
2019-06-15T10:10:44.422Z,3.30
2019-06-15T10:13:14.631Z,2.30
2019-06-15T10:15:44.894Z,5.37
2019-06-15T10:18:15.082Z,2.50
2019-06-15T10:20:45.276Z,2.93
2019-06-15T10:23:15.545Z,3.00
2019-06-15T10:25:45.843Z,3.30
2019-06-15T10:28:16.007Z,2.83
2019-06-15T10:30:47.139Z,5.17
2019-06-15T10:33:18.637Z,5.00
2019-06-15T10:35:48.844Z,3.20
2019-06-15T10:38:19.035Z,3.37
2019-06-15T10:40:49.305Z,5.10
2019-06-15T10:43:19.474Z,5.30
2019-06-15T10:45:49.936Z,3.90
2019-06-15T10:48:20.160Z,4.80
2019-06-15T10:50:50.513Z,2.83
2019-06-15T10:53:20.718Z,2.73
2019-06-15T10:55:50.864Z,4.30
2019-06-15T10:58:21.165Z,2.63
2019-06-15T11:00:51.353Z,4.90
2019-06-15T11:03:21.617Z,3.40
2019-06-15T11:05:54.800Z,3.40
2019-06-15T11:08:26.093Z,2.50
2019-06-15T11:11:21.840Z,2.27
2019-06-15T11:13:52.326Z,2.50
2019-06-15T11:16:22.611Z,4.10
2019-06-15T11:18:53.951Z,3.67
2019-06-15T11:21:24.250Z,2.80
2019-06-15T11:23:54.419Z,2.80
2019-06-15T11:26:24.624Z,3.03
2019-06-15T11:28:54.831Z,2.90
2019-06-15T11:31:25.164Z,4.30
2019-06-15T11:33:55.354Z,3.30
2019-06-15T11:36:25.565Z,2.87
2019-06-15T11:38:55.812Z,2.90
2019-06-15T11:41:27.217Z,5.40
2019-06-15T11:43:57.580Z,3.53
2019-06-15T11:46:27.878Z,4.00
2019-06-15T11:48:58.188Z,4.30
2019-06-15T11:51:28.479Z,6.90
2019-06-15T11:53:59.059Z,4.60
2019-06-15T11:56:29.293Z,3.20
2019-06-15T11:58:59.483Z,3.73
2019-06-15T12:01:29.681Z,4.40
2019-06-15T12:03:59.875Z,4.10
2019-06-15T12:06:30.193Z,3.60
2019-06-15T12:09:00.501Z,3.20
2019-06-15T12:11:30.849Z,3.20
2019-06-15T12:14:01.024Z,4.07
2019-06-15T12:16:31.207Z,5.00
2019-06-15T12:19:01.503Z,3.47
2019-06-15T12:21:33.503Z,4.03
2019-06-15T12:24:03.762Z,7.93
2019-06-15T12:26:34.008Z,5.60
2019-06-15T12:29:04.199Z,3.47
2019-06-15T12:31:34.436Z,3.47
2019-06-15T12:34:04.945Z,4.80
2019-06-15T12:36:36.183Z,3.97
2019-06-15T12:39:07.451Z,3.40
2019-06-15T12:41:38.211Z,6.60
2019-06-15T12:44:08.498Z,4.90
2019-06-15T12:46:38.701Z,3.70
2019-06-15T12:49:08.989Z,2.90
2019-06-15T12:51:40.791Z,3.30
2019-06-15T12:54:12.509Z,3.53
2019-06-15T12:56:42.653Z,3.23
2019-06-15T12:59:12.855Z,3.90
2019-06-15T13:01:43.031Z,3.17
2019-06-15T13:04:13.200Z,2.90
2019-06-15T13:06:43.412Z,4.87
2019-06-15T13:09:13.661Z,4.60
2019-06-15T13:11:43.883Z,3.30
2019-06-15T13:14:14.230Z,4.00
2019-06-15T13:16:47.288Z,4.90
2019-06-15T13:19:16.589Z,5.30
2019-06-15T13:21:46.807Z,4.07
2019-06-15T13:24:17.002Z,4.10
2019-06-15T13:26:47.259Z,3.43
2019-06-15T13:29:17.552Z,3.63
2019-06-15T13:31:47.754Z,3.53
2019-06-15T13:34:17.979Z,7.80
2019-06-15T13:36:48.179Z,5.50
2019-06-15T13:39:18.377Z,3.33
2019-06-15T13:41:48.565Z,3.63
2019-06-15T13:44:18.835Z,7.83
2019-06-15T13:46:49.011Z,5.43
2019-06-15T13:49:19.329Z,4.03
2019-06-15T13:51:49.556Z,3.30
2019-06-15T13:54:19.812Z,2.93
2019-06-15T13:56:50.052Z,3.77
2019-06-15T13:59:20.215Z,6.77
2019-06-15T14:01:50.399Z,3.57
2019-06-15T14:04:20.551Z,4.27
2019-06-15T14:06:50.763Z,3.20
2019-06-15T14:09:20.913Z,2.50
2019-06-15T14:11:51.082Z,4.43
2019-06-15T14:14:21.275Z,4.13
2019-06-15T14:16:51.439Z,6.03
2019-06-15T14:19:21.715Z,3.53
2019-06-15T14:21:51.948Z,3.83
2019-06-15T14:24:22.180Z,3.60
2019-06-15T14:26:53.407Z,7.80
2019-06-15T14:29:23.602Z,5.27
2019-06-15T14:31:53.840Z,7.47
2019-06-15T14:34:25.140Z,8.30
2019-06-15T14:36:55.408Z,6.90
2019-06-15T14:39:25.747Z,6.33
2019-06-15T14:41:55.884Z,6.37
2019-06-15T14:44:26.057Z,5.50
2019-06-15T14:46:56.208Z,4.93
2019-06-15T14:49:26.394Z,4.43
2019-06-15T14:51:56.567Z,4.00
2019-06-15T14:54:26.799Z,6.20
2019-06-15T14:56:57.027Z,4.90
2019-06-15T14:59:27.203Z,5.73
2019-06-15T15:02:10.126Z,4.63
2019-06-15T15:04:29.276Z,7.20
2019-06-15T15:06:59.404Z,5.17
2019-06-15T15:09:29.601Z,4.23
2019-06-15T15:11:59.781Z,4.50
2019-06-15T15:14:30.130Z,4.23
2019-06-15T15:17:00.404Z,4.73
2019-06-15T15:19:30.591Z,5.17
2019-06-15T15:22:00.793Z,6.03
2019-06-15T15:24:31.094Z,6.40
2019-06-15T15:27:01.262Z,7.90
2019-06-15T15:29:31.469Z,5.10
2019-06-15T15:32:01.672Z,5.63
2019-06-15T15:34:32.676Z,4.77
2019-06-15T15:37:02.840Z,7.13
2019-06-15T15:39:33.024Z,5.97
2019-06-15T15:42:03.229Z,8.23
2019-06-15T15:44:35.874Z,3.50
2019-06-15T15:47:07.080Z,5.50
2019-06-15T15:49:37.768Z,6.13
2019-06-15T15:52:08.073Z,4.10
2019-06-15T15:54:38.305Z,6.97
2019-06-15T15:57:08.471Z,4.73
2019-06-15T15:59:38.788Z,2.93
2019-06-15T16:02:08.993Z,5.93
2019-06-15T16:04:39.269Z,3.97
2019-06-15T16:07:09.430Z,5.33
2019-06-15T16:09:39.644Z,5.20
2019-06-15T16:12:09.896Z,4.23
2019-06-15T16:14:40.087Z,3.30
2019-06-15T16:17:10.327Z,3.60
2019-06-15T16:19:40.468Z,4.30
2019-06-15T16:22:11.692Z,4.07
2019-06-15T16:24:41.842Z,6.50
2019-06-15T16:27:12.013Z,3.90
2019-06-15T16:29:42.303Z,5.60
2019-06-15T16:32:12.483Z,4.37
2019-06-15T16:34:42.642Z,3.00
2019-06-15T16:37:12.805Z,6.97
2019-06-15T16:39:42.952Z,3.40
2019-06-15T16:42:13.304Z,4.03
2019-06-15T16:44:43.443Z,6.97
2019-06-15T16:47:13.661Z,3.73
2019-06-15T16:49:46.484Z,5.80
2019-06-15T16:52:16.823Z,4.77
2019-06-15T16:54:47.138Z,4.13
2019-06-15T16:57:17.399Z,3.50
2019-06-15T16:59:47.593Z,5.40
2019-06-15T17:02:17.780Z,6.80
2019-06-15T17:04:47.968Z,4.57
2019-06-15T17:07:18.292Z,5.97
2019-06-15T17:09:48.479Z,6.53
2019-06-15T17:12:18.725Z,4.77
2019-06-15T17:14:49.950Z,5.37
2019-06-15T17:17:20.125Z,3.83
2019-06-15T17:19:50.406Z,4.90
2019-06-15T17:22:21.478Z,4.23
2019-06-15T17:24:51.968Z,4.43
2019-06-15T17:27:22.341Z,4.60
2019-06-15T17:29:52.547Z,4.17
2019-06-15T17:32:22.814Z,5.10
2019-06-15T17:34:53.061Z,5.17
2019-06-15T17:37:23.287Z,4.23
2019-06-15T17:39:56.213Z,4.73
2019-06-15T17:42:26.056Z,6.43
2019-06-15T17:44:57.119Z,8.37
2019-06-15T17:47:28.480Z,4.03
2019-06-15T17:49:58.686Z,3.70
2019-06-15T17:52:28.912Z,4.40
2019-06-15T17:54:59.121Z,4.77
2019-06-15T17:57:29.385Z,4.70
2019-06-15T17:59:59.709Z,5.60
2019-06-15T18:02:30.049Z,3.67
2019-06-15T18:05:00.392Z,5.10
2019-06-15T18:07:30.971Z,3.60
2019-06-15T18:10:01.216Z,6.67
2019-06-15T18:12:31.511Z,4.00
2019-06-15T18:15:01.691Z,5.07
2019-06-15T18:17:31.969Z,3.83
2019-06-15T18:20:02.220Z,4.00
2019-06-15T18:22:32.405Z,7.63
2019-06-15T18:25:02.886Z,3.20
2019-06-15T18:27:33.172Z,7.60
2019-06-15T18:30:06.394Z,3.73
2019-06-15T18:32:37.908Z,3.47
2019-06-15T18:35:07.263Z,4.70
2019-06-15T18:37:37.547Z,4.70
2019-06-15T18:40:07.968Z,4.50
2019-06-15T18:42:38.280Z,3.37
2019-06-15T18:45:08.976Z,3.87
2019-06-15T18:47:39.191Z,5.13
2019-06-15T18:50:10.123Z,11.77
2019-06-15T18:52:40.310Z,3.67
2019-06-15T18:55:10.793Z,7.90
2019-06-15T18:57:40.939Z,3.37
2019-06-15T19:00:11.564Z,3.73
2019-06-15T19:02:42.143Z,5.40
2019-06-15T19:05:12.759Z,5.47
2019-06-15T19:07:42.939Z,3.50
2019-06-15T19:10:16.522Z,3.63
2019-06-15T19:12:46.887Z,3.37
2019-06-15T19:15:17.255Z,5.13
2019-06-15T19:17:48.907Z,6.70
2019-06-15T19:20:19.124Z,4.77
2019-06-15T19:22:49.329Z,3.80
2019-06-15T19:25:19.507Z,7.53
2019-06-15T19:27:49.697Z,4.27
2019-06-15T19:30:20.016Z,6.00
2019-06-15T19:32:50.191Z,4.50
2019-06-15T19:35:20.565Z,5.97
2019-06-15T19:37:50.857Z,4.07
2019-06-15T19:40:21.278Z,4.80
2019-06-15T19:42:51.487Z,5.47
2019-06-15T19:45:21.962Z,7.20
2019-06-15T19:47:52.299Z,8.33
2019-06-15T19:50:23.695Z,6.90
2019-06-15T19:52:56.399Z,5.37
2019-06-15T19:55:26.867Z,8.27
2019-06-15T19:57:57.304Z,7.03
2019-06-15T20:00:27.528Z,7.77
2019-06-15T20:02:57.793Z,7.20
2019-06-15T20:05:28.944Z,8.73
2019-06-15T20:08:00.346Z,7.33
2019-06-15T20:10:30.644Z,6.27
2019-06-15T20:13:00.813Z,7.30
2019-06-15T20:15:31.056Z,6.20
2019-06-15T20:18:01.232Z,9.83
2019-06-15T20:20:31.440Z,7.13
2019-06-15T20:23:01.621Z,8.73
2019-06-15T20:25:32.073Z,9.03
2019-06-15T20:28:02.254Z,8.40
2019-06-15T20:30:32.416Z,7.10
2019-06-15T20:33:02.714Z,11.47
2019-06-15T20:35:32.970Z,10.60
2019-06-15T20:38:03.158Z,10.60
2019-06-15T20:40:36.599Z,9.17
2019-06-15T20:43:07.612Z,9.10
2019-06-15T20:45:38.021Z,12.40
2019-06-15T20:48:08.191Z,8.50
2019-06-15T20:50:38.381Z,12.60
2019-06-15T20:53:08.551Z,10.33
2019-06-15T20:55:38.759Z,11.70
2019-06-15T20:58:08.928Z,11.50
2019-06-15T21:00:39.152Z,9.70
2019-06-15T21:03:09.340Z,10.33
2019-06-15T21:05:42.123Z,11.77
2019-06-15T21:08:12.383Z,13.43
2019-06-15T21:10:42.684Z,20.87
2019-06-15T21:13:12.911Z,22.13
2019-06-15T21:15:47.420Z,15.90
2019-06-15T21:18:17.996Z,15.60
2019-06-15T21:20:48.152Z,16.77
2019-06-15T21:23:18.444Z,19.40
2019-06-15T21:25:48.748Z,15.73
2019-06-15T21:28:19.060Z,17.13
2019-06-15T21:30:49.365Z,19.50
2019-06-15T21:33:19.521Z,16.23
2019-06-15T21:35:52.596Z,19.03
2019-06-15T21:38:21.537Z,18.17
2019-06-15T21:40:51.759Z,19.10
2019-06-15T21:43:21.936Z,20.33
2019-06-15T21:45:52.145Z,26.63
2019-06-15T21:48:23.500Z,16.27
2019-06-15T21:50:56.855Z,17.63
2019-06-15T21:53:26.621Z,18.43
2019-06-15T21:55:57.049Z,19.33
2019-06-15T21:58:28.310Z,17.33
2019-06-15T22:01:21.421Z,19.47
2019-06-15T22:03:52.881Z,20.10
2019-06-15T22:06:23.066Z,19.10
2019-06-15T22:08:53.313Z,21.00
2019-06-15T22:11:23.542Z,17.67
2019-06-15T22:13:53.948Z,20.67
2019-06-15T22:16:24.121Z,19.07
2019-06-15T22:18:54.512Z,18.50
2019-06-15T22:21:28.065Z,23.20
2019-06-15T22:23:57.807Z,21.40
2019-06-15T22:26:28.043Z,18.23
2019-06-15T22:28:58.333Z,23.13
2019-06-15T22:31:28.631Z,19.63
2019-06-15T22:33:58.845Z,18.70
2019-06-15T22:36:29.043Z,19.10
2019-06-15T22:38:59.380Z,19.97
2019-06-15T22:41:29.557Z,21.27
2019-06-15T22:43:59.859Z,21.20
2019-06-15T22:46:31.312Z,22.07
2019-06-15T22:49:02.951Z,21.70
2019-06-15T22:51:33.285Z,20.47
2019-06-15T22:54:03.472Z,18.17
2019-06-15T22:56:33.663Z,22.10
2019-06-15T22:59:06.121Z,20.20
2019-06-15T23:01:35.780Z,25.53
2019-06-15T23:04:06.563Z,22.63
2019-06-15T23:06:41.456Z,23.90
2019-06-15T23:09:10.138Z,24.33
2019-06-15T23:11:40.368Z,21.83
2019-06-15T23:14:10.546Z,27.53
2019-06-15T23:16:40.743Z,25.87
2019-06-15T23:19:10.900Z,26.63
2019-06-15T23:21:41.119Z,24.27
2019-06-15T23:24:11.322Z,25.77
2019-06-15T23:26:41.498Z,33.13
2019-06-15T23:29:11.755Z,25.33
2019-06-15T23:31:41.908Z,25.33
2019-06-15T23:34:12.189Z,23.03
2019-06-15T23:36:54.227Z,27.03
2019-06-15T23:39:16.475Z,26.30
2019-06-15T23:41:47.057Z,27.80
2019-06-15T23:44:17.408Z,31.33
2019-06-15T23:46:47.576Z,28.57
2019-06-15T23:49:17.764Z,26.17
2019-06-15T23:51:47.959Z,26.97
2019-06-15T23:54:18.172Z,29.80
2019-06-15T23:56:49.460Z,43.73
2019-06-15T23:59:19.695Z,30.97
